UDPAV weather

Campo di Volo "Fly Evolution"
Pavia di Udine (UD), Friuli-Venezia Giulia, Italy

Public forecast

Using degrees Celsius for public forecast. Weather courtesy of forecast.io.

METAR (pilot weather report)

Report is more than 6 hours old.

Closest report is Rivolto Air Base, 10.8 nm (19.9 km) W. Retrieved 2019/09/21 13:55 UTC (2 days ago):

LIPI 211355Z 14005KT CAVOK 22/03 Q1022 RMK SKC VIS MIN 9999 WIND THR06 15006KT WIND THR24 22005KT BLU

TAF (pilot weather forecast)

Forecast is more than 12 hours old.

Closest forecast is Rivolto Air Base, 10.8 nm (19.9 km) W. Retrieved 2017/11/16 12:24 UTC (2 years ago):

TAF TAF LIPI 161100Z 1612/1624 08013KT CAVOK BECMG 1616/1618 VRB05KT 9999 FEW040 SCT090